Impacts METAR Board
IDs:

KLZZ - Lampasas Arpt, TX, US

Updated at: 1200 UTC 16 Jul 2019
Potential Impact None Slight Moderate High
Time 16/00Z 16/01Z 16/02Z 16/03Z 16/04Z 16/05Z 16/06Z 16/07Z 16/08Z 16/09Z 16/10Z 16/11Z 16/12Z
Temp91 89 85 82 81 80 79 80 78 78 76 76 75
Dewpt71 71 71 70 71 71 71 73 73 73 72 72 72
Altim29.88 29.89 29.91 29.91 29.93 29.94 29.94 29.95 29.95 29.95 29.95 29.97 29.99
VIS10 10 10 10 10 10 10 10 10 10 10 10 10
CIG-- -- -- -- -- -- -- -- -- -- -- -- --
CoverCLRCLRSCTCLRCLRCLRCLRCLRCLRCLRCLRCLRCLR
FltCatVFRVFRVFRVFRVFRVFRVFRVFRVFRVFRVFRVFRVFR
WX--------------------------
WDir1801700160000190200190190180190
WSpd9 5 0 3 0 0 0 5 3 4 3 5 5
WGst14 -- -- -- -- -- -- -- -- -- -- -- --
Raw hourly METARs
KLZZ 152355Z AUTO 18009G14KT 10SM CLR 33/22 A2988 RMK AO2 T03280215 10363 20320
KLZZ 160055Z AUTO 17005KT 10SM CLR 32/22 A2989 RMK AO2 T03160217
KLZZ 160155Z AUTO 00000KT 10SM SCT075 29/22 A2991 RMK AO2 T02940217
KLZZ 160255Z AUTO 16003KT 10SM CLR 28/21 A2991 RMK AO2 T02800211
KLZZ 160355Z AUTO 00000KT 10SM CLR 27/22 A2993 RMK AO2 T02720215
KLZZ 160455Z AUTO 00000KT 10SM CLR 27/22 A2994 RMK AO2 T02650216
KLZZ 160555Z AUTO 00000KT 10SM CLR 26/22 A2994 RMK AO2 T02610218 10327 20260 403630208
KLZZ 160655Z AUTO 19005KT 10SM CLR 27/23 A2995 RMK AO2 T02660227
KLZZ 160755Z AUTO 20003KT 10SM CLR 26/23 A2995 RMK AO2 T02580228
KLZZ 160855Z AUTO 19004KT 10SM CLR 25/23 A2995 RMK AO2 T02540226
KLZZ 160955Z AUTO 19003KT 10SM CLR 25/22 A2995 RMK AO2 T02470223
KLZZ 161055Z AUTO 18005KT 10SM CLR 25/22 A2997 RMK AO2 T02450222
KLZZ 161155Z AUTO 19005KT 10SM CLR 24/22 A2999 RMK AO2 T02410220 10270 20241